Harborcreek, Pennsylvania
Current Conditions -  °F | °C
As of 4:51 PM on Wednesday 22 Oct 2014 (Local Time) from KERI Reporting Station
Overcast Overcast  
Wind Chill: 45°   Ceiling: 2300
Heat Index: 49°   Visibility: 10mi
Dew Point: 41°   Wind: 8mph
Humidity: 74%   Direction: 30°NNE
Pressure: 30.23"   Gusts: NA
Location:  42.17°N, 79.95°W
Report Text: KERI 222051Z 03007KT 10SM OVC023 09/05 A3023 RMK AO2 SLP240 T00940050 55001
Loading
Personal Weather Stations






























Interactive Weather Map
Tropical Storm Tracking
New forecast layout! Learn more

10-Day Weather Forecast

Advertisements
Track Severe Weather on mobile